Etusivu
METAR-TAF:

METAR-TAF

Lentoasemat :

Evenes, Norja

Harstadin/Narvikin lentoasema

Leveyspiiri: 68-31N, Pituuspiiri: 016-41E, korkeus merenpinnasta: 26 m

Tämänhetkinen sää

Tämä raportti tehtiin 1 tunti ja 7 minuuttia sitten, kello 03.50 UTC
Tuuli 9 kn pohjoisesta
Lämpötila 4°C
Kosteus 93%
Ilmanpaine 1016 hPa
Näkyvyys 10 km tai enemmän
Muutamia pilviä 1100 ft:n korkeudessa
Hajanaisia pilviä 2300 ft:n korkeudessa
Hajonneita pilviä 4100 ft:n korkeudessa

METAR: ENEV 230350Z 36009KT 9999 FEW011 SCT023 BKN041 04/03 Q1016 RMK WIND 1400FT 36016KT

Aika: 06:57 (04:57 UTC)

Sääennuste

Tämä raportti tehtiin 2 tuntia ja 57 minuuttia sitten, kello 02.00 UTC
Ennuste voimassa 23. päivästä klo 04 UTC - 23. päivään klo 12 UTC
Tuuli 5 kn pohjoisen/luoteesta
Näkyvyys 10 km tai enemmän
Muutamia pilviä 1500 ft:n korkeudessa
Hajonneita pilviä 3000 ft:n korkeudessa

TAF: ENEV 230200Z 2304/2312 34005KT 9999 FEW015 BKN030

Säähavainnot ja -ennusteet yli 4000 lentoasemalta (METAR- ja TAF-raportit).

Käytössä olevat sääasemat on merkitty karttaan keltaisilla ja punaisilla pisteillä.

Aseta hiiri pisteen päälle nähdäksesi sääaseman nimen.

Klikkaa sitten nähdäksesi säähavainnot ja -ennusteet.

Kartan vaihtaminen: klikkaa mustalla rastilla varustettuja vihreitä pisteitä, niin voit zoomata sisään; viivalla varustettua vihreää pistettä, niin voit zoomata ulos tai vihreitä nuolia, niin pääset viereisille kartoille.


METAR-TAF: